sensor_id;sensor_type;location;lat;lon;timestamp;pressure;altitude;pressure_sealevel;temperature;humidity
26775;BME280;14362;51.902;7.626;2022-10-16T00:02:19;100474.94;;;13.46;100.00
26775;BME280;14362;51.902;7.626;2022-10-16T00:06:22;100474.38;;;13.41;100.00
26775;BME280;14362;51.902;7.626;2022-10-16T00:10:23;100476.69;;;13.39;100.00
26775;BME280;14362;51.902;7.626;2022-10-16T00:14:25;100479.88;;;13.37;100.00
26775;BME280;14362;51.902;7.626;2022-10-16T00:18:28;100476.59;;;13.35;100.00
26775;BME280;14362;51.902;7.626;2022-10-16T00:22:30;100475.44;;;13.36;100.00
26775;BME280;14362;51.902;7.626;2022-10-16T00:26:33;100472.50;;;13.33;100.00
26775;BME280;14362;51.902;7.626;2022-10-16T00:30:37;100469.69;;;13.33;100.00
26775;BME280;14362;51.902;7.626;2022-10-16T00:34:40;100477.28;;;13.32;100.00
26775;BME280;14362;51.902;7.626;2022-10-16T00:38:41;100478.44;;;13.31;100.00
26775;BME280;14362;51.902;7.626;2022-10-16T00:42:43;100475.53;;;13.28;100.00
26775;BME280;14362;51.902;7.626;2022-10-16T00:46:44;100486.75;;;13.28;100.00
26775;BME280;14362;51.902;7.626;2022-10-16T00:50:47;100487.91;;;13.27;100.00
26775;BME280;14362;51.902;7.626;2022-10-16T00:54:49;100488.22;;;13.26;100.00
26775;BME280;14362;51.902;7.626;2022-10-16T00:58:51;100488.91;;;13.23;100.00
26775;BME280;14362;51.902;7.626;2022-10-16T01:02:53;100479.25;;;13.20;100.00
26775;BME280;14362;51.902;7.626;2022-10-16T01:07:03;100476.44;;;13.20;100.00
26775;BME280;14362;51.902;7.626;2022-10-16T01:11:12;100483.09;;;13.16;100.00
26775;BME280;14362;51.902;7.626;2022-10-16T01:15:23;100489.84;;;13.15;100.00
26775;BME280;14362;51.902;7.626;2022-10-16T01:19:39;100483.78;;;13.13;100.00
26775;BME280;14362;51.902;7.626;2022-10-16T01:23:51;100488.69;;;13.16;100.00
26775;BME280;14362;51.902;7.626;2022-10-16T01:28:00;100480.16;;;13.12;100.00
26775;BME280;14362;51.902;7.626;2022-10-16T01:32:09;100481.00;;;13.13;100.00
26775;BME280;14362;51.902;7.626;2022-10-16T01:36:14;100486.94;;;13.11;100.00
26775;BME280;14362;51.902;7.626;2022-10-16T01:40:19;100472.47;;;13.09;100.00
26775;BME280;14362;51.902;7.626;2022-10-16T01:44:26;100477.94;;;13.06;100.00
26775;BME280;14362;51.902;7.626;2022-10-16T01:48:29;100478.63;;;13.03;100.00
26775;BME280;14362;51.902;7.626;2022-10-16T01:52:35;100471.75;;;13.00;100.00
26775;BME280;14362;51.902;7.626;2022-10-16T01:56:39;100473.75;;;13.00;100.00
26775;BME280;14362;51.902;7.626;2022-10-16T02:00:44;100469.78;;;13.01;100.00
26775;BME280;14362;51.902;7.626;2022-10-16T02:04:48;100492.84;;;12.98;100.00
26775;BME280;14362;51.902;7.626;2022-10-16T02:08:53;100484.78;;;12.96;100.00
26775;BME280;14362;51.902;7.626;2022-10-16T02:12:57;100481.41;;;12.91;100.00
26775;BME280;14362;51.902;7.626;2022-10-16T02:17:01;100483.41;;;12.90;100.00
26775;BME280;14362;51.902;7.626;2022-10-16T02:21:09;100489.28;;;12.89;100.00
26775;BME280;14362;51.902;7.626;2022-10-16T02:25:17;100479.50;;;12.83;100.00
26775;BME280;14362;51.902;7.626;2022-10-16T02:29:24;100487.75;;;12.79;100.00
26775;BME280;14362;51.902;7.626;2022-10-16T02:33:29;100494.84;;;12.77;100.00
26775;BME280;14362;51.902;7.626;2022-10-16T02:37:32;100495.06;;;12.72;100.00
26775;BME280;14362;51.902;7.626;2022-10-16T02:41:34;100496.91;;;12.68;100.00
26775;BME280;14362;51.902;7.626;2022-10-16T02:45:35;100504.00;;;12.65;100.00
26775;BME280;14362;51.902;7.626;2022-10-16T02:49:38;100499.47;;;12.61;100.00
26775;BME280;14362;51.902;7.626;2022-10-16T02:53:39;100507.69;;;12.57;100.00
26775;BME280;14362;51.902;7.626;2022-10-16T02:57:41;100500.81;;;12.55;100.00
26775;BME280;14362;51.902;7.626;2022-10-16T03:01:42;100496.75;;;12.52;100.00
26775;BME280;14362;51.902;7.626;2022-10-16T03:05:45;100496.59;;;12.49;100.00
26775;BME280;14362;51.902;7.626;2022-10-16T03:09:47;100487.72;;;12.47;100.00
26775;BME280;14362;51.902;7.626;2022-10-16T03:13:48;100488.88;;;12.46;100.00
26775;BME280;14362;51.902;7.626;2022-10-16T03:17:49;100489.59;;;12.43;100.00
26775;BME280;14362;51.902;7.626;2022-10-16T03:21:52;100502.88;;;12.46;100.00
26775;BME280;14362;51.902;7.626;2022-10-16T03:25:54;100514.03;;;12.46;100.00
26775;BME280;14362;51.902;7.626;2022-10-16T03:29:55;100505.34;;;12.47;100.00
26775;BME280;14362;51.902;7.626;2022-10-16T03:33:56;100509.28;;;12.46;100.00
26775;BME280;14362;51.902;7.626;2022-10-16T03:37:59;100493.31;;;12.47;100.00
26775;BME280;14362;51.902;7.626;2022-10-16T03:42:01;100501.38;;;12.48;100.00
26775;BME280;14362;51.902;7.626;2022-10-16T03:46:02;100488.88;;;12.46;100.00
26775;BME280;14362;51.902;7.626;2022-10-16T03:50:05;100485.97;;;12.42;100.00
26775;BME280;14362;51.902;7.626;2022-10-16T03:54:09;100499.16;;;12.42;100.00
26775;BME280;14362;51.902;7.626;2022-10-16T03:58:11;100494.22;;;12.39;100.00
26775;BME280;14362;51.902;7.626;2022-10-16T04:02:12;100490.59;;;12.38;100.00
26775;BME280;14362;51.902;7.626;2022-10-16T04:06:14;100502.13;;;12.37;100.00
26775;BME280;14362;51.902;7.626;2022-10-16T04:10:17;100507.25;;;12.35;100.00
26775;BME280;14362;51.902;7.626;2022-10-16T04:14:19;100512.72;;;12.31;100.00
26775;BME280;14362;51.902;7.626;2022-10-16T04:18:20;100513.03;;;12.30;100.00
26775;BME280;14362;51.902;7.626;2022-10-16T04:22:21;100524.56;;;12.28;100.00
26775;BME280;14362;51.902;7.626;2022-10-16T04:26:24;100538.53;;;12.28;100.00
26775;BME280;14362;51.902;7.626;2022-10-16T04:30:26;100531.78;;;12.29;100.00
26775;BME280;14362;51.902;7.626;2022-10-16T04:34:27;100528.88;;;12.26;100.00
26775;BME280;14362;51.902;7.626;2022-10-16T04:38:29;100540.38;;;12.24;100.00
26775;BME280;14362;51.902;7.626;2022-10-16T04:42:32;100555.19;;;12.25;100.00
26775;BME280;14362;51.902;7.626;2022-10-16T04:46:33;100554.69;;;12.23;100.00
26775;BME280;14362;51.902;7.626;2022-10-16T04:50:35;100546.63;;;12.22;100.00
26775;BME280;14362;51.902;7.626;2022-10-16T04:54:37;100549.78;;;12.20;100.00
26775;BME280;14362;51.902;7.626;2022-10-16T04:58:39;100550.59;;;12.21;100.00
26775;BME280;14362;51.902;7.626;2022-10-16T05:02:41;100545.00;;;12.21;100.00
26775;BME280;14362;51.902;7.626;2022-10-16T05:06:42;100561.44;;;12.22;100.00
26775;BME280;14362;51.902;7.626;2022-10-16T05:10:44;100562.91;;;12.20;100.00
26775;BME280;14362;51.902;7.626;2022-10-16T05:14:47;100557.81;;;12.22;100.00
26775;BME280;14362;51.902;7.626;2022-10-16T05:18:49;100560.28;;;12.23;100.00
26775;BME280;14362;51.902;7.626;2022-10-16T05:22:52;100560.75;;;12.25;100.00
26775;BME280;14362;51.902;7.626;2022-10-16T05:26:53;100568.44;;;12.28;100.00
26775;BME280;14362;51.902;7.626;2022-10-16T05:30:56;100575.69;;;12.29;100.00
26775;BME280;14362;51.902;7.626;2022-10-16T05:34:58;100580.59;;;12.32;100.00
26775;BME280;14362;51.902;7.626;2022-10-16T05:39:00;100581.91;;;12.34;100.00
26775;BME280;14362;51.902;7.626;2022-10-16T05:43:01;100589.13;;;12.35;100.00
26775;BME280;14362;51.902;7.626;2022-10-16T05:47:04;100590.41;;;12.38;100.00
26775;BME280;14362;51.902;7.626;2022-10-16T05:51:07;100594.50;;;12.40;100.00
26775;BME280;14362;51.902;7.626;2022-10-16T05:55:09;100597.09;;;12.45;100.00
26775;BME280;14362;51.902;7.626;2022-10-16T05:59:11;100613.88;;;12.45;100.00
26775;BME280;14362;51.902;7.626;2022-10-16T06:03:14;100610.06;;;12.50;100.00
26775;BME280;14362;51.902;7.626;2022-10-16T06:07:15;100611.50;;;12.56;100.00
26775;BME280;14362;51.902;7.626;2022-10-16T06:11:18;100614.09;;;12.61;100.00
26775;BME280;14362;51.902;7.626;2022-10-16T06:15:20;100611.31;;;12.61;100.00
26775;BME280;14362;51.902;7.626;2022-10-16T06:19:23;100622.63;;;12.64;100.00
26775;BME280;14362;51.902;7.626;2022-10-16T06:23:25;100640.34;;;12.68;100.00
26775;BME280;14362;51.902;7.626;2022-10-16T06:27:27;100652.81;;;12.71;100.00
26775;BME280;14362;51.902;7.626;2022-10-16T06:31:28;100657.88;;;12.77;100.00
26775;BME280;14362;51.902;7.626;2022-10-16T06:35:32;100671.66;;;12.82;100.00
26775;BME280;14362;51.902;7.626;2022-10-16T06:39:33;100671.13;;;12.89;100.00
26775;BME280;14362;51.902;7.626;2022-10-16T06:43:35;100679.00;;;12.95;100.00
26775;BME280;14362;51.902;7.626;2022-10-16T06:47:36;100683.22;;;13.01;100.00
26775;BME280;14362;51.902;7.626;2022-10-16T06:51:39;100692.38;;;13.10;100.00
26775;BME280;14362;51.902;7.626;2022-10-16T06:55:41;100698.09;;;13.14;100.00
26775;BME280;14362;51.902;7.626;2022-10-16T06:59:43;100701.50;;;13.19;100.00
26775;BME280;14362;51.902;7.626;2022-10-16T07:03:46;100703.44;;;13.27;100.00
26775;BME280;14362;51.902;7.626;2022-10-16T07:07:49;100702.31;;;13.40;100.00
26775;BME280;14362;51.902;7.626;2022-10-16T07:11:50;100719.59;;;13.42;100.00
26775;BME280;14362;51.902;7.626;2022-10-16T07:15:52;100720.53;;;13.46;100.00
26775;BME280;14362;51.902;7.626;2022-10-16T07:19:53;100731.75;;;13.46;100.00
26775;BME280;14362;51.902;7.626;2022-10-16T07:23:58;100747.50;;;13.50;100.00
26775;BME280;14362;51.902;7.626;2022-10-16T07:28:01;100760.84;;;13.53;100.00
26775;BME280;14362;51.902;7.626;2022-10-16T07:32:02;100773.31;;;13.56;100.00
26775;BME280;14362;51.902;7.626;2022-10-16T07:36:04;100778.44;;;13.54;100.00
26775;BME280;14362;51.902;7.626;2022-10-16T07:40:08;100778.72;;;13.61;100.00
26775;BME280;14362;51.902;7.626;2022-10-16T07:44:10;100784.25;;;13.69;100.00
26775;BME280;14362;51.902;7.626;2022-10-16T07:48:11;100777.88;;;13.81;100.00
26775;BME280;14362;51.902;7.626;2022-10-16T07:52:13;100790.28;;;13.92;100.00
26775;BME280;14362;51.902;7.626;2022-10-16T07:56:16;100791.81;;;14.01;100.00
26775;BME280;14362;51.902;7.626;2022-10-16T08:00:18;100804.94;;;14.09;100.00
26775;BME280;14362;51.902;7.626;2022-10-16T08:04:19;100811.66;;;14.17;100.00
26775;BME280;14362;51.902;7.626;2022-10-16T08:08:21;100833.41;;;14.32;100.00
26775;BME280;14362;51.902;7.626;2022-10-16T08:12:24;100841.72;;;14.40;100.00
26775;BME280;14362;51.902;7.626;2022-10-16T08:16:25;100843.63;;;14.48;100.00
26775;BME280;14362;51.902;7.626;2022-10-16T08:20:28;100841.41;;;14.53;100.00
26775;BME280;14362;51.902;7.626;2022-10-16T08:24:29;100840.81;;;14.60;100.00
26775;BME280;14362;51.902;7.626;2022-10-16T08:28:34;100845.75;;;14.75;100.00
26775;BME280;14362;51.902;7.626;2022-10-16T08:32:35;100843.66;;;14.84;100.00
26775;BME280;14362;51.902;7.626;2022-10-16T08:36:37;100848.31;;;14.92;100.00
26775;BME280;14362;51.902;7.626;2022-10-16T08:40:38;100861.22;;;15.05;100.00
26775;BME280;14362;51.902;7.626;2022-10-16T08:45:01;100861.19;;;15.17;100.00
26775;BME280;14362;51.902;7.626;2022-10-16T08:49:05;100850.44;;;15.31;100.00
26775;BME280;14362;51.902;7.626;2022-10-16T08:53:15;100868.69;;;15.48;100.00
26775;BME280;14362;51.902;7.626;2022-10-16T08:57:20;100875.94;;;15.61;100.00
26775;BME280;14362;51.902;7.626;2022-10-16T09:01:24;100868.63;;;15.72;100.00
26775;BME280;14362;51.902;7.626;2022-10-16T09:05:45;100885.91;;;15.86;100.00
26775;BME280;14362;51.902;7.626;2022-10-16T09:10:00;100888.25;;;15.96;100.00
26775;BME280;14362;51.902;7.626;2022-10-16T09:14:14;100904.72;;;16.10;100.00
26775;BME280;14362;51.902;7.626;2022-10-16T09:18:25;100908.66;;;16.21;100.00
26775;BME280;14362;51.902;7.626;2022-10-16T09:22:28;100901.94;;;16.37;100.00
26775;BME280;14362;51.902;7.626;2022-10-16T09:26:32;100903.88;;;16.48;100.00
26775;BME280;14362;51.902;7.626;2022-10-16T09:30:34;100908.53;;;16.56;100.00
26775;BME280;14362;51.902;7.626;2022-10-16T09:34:40;100917.63;;;16.65;100.00
26775;BME280;14362;51.902;7.626;2022-10-16T09:38:43;100913.81;;;16.73;100.00
26775;BME280;14362;51.902;7.626;2022-10-16T09:42:45;100919.34;;;16.70;100.00
26775;BME280;14362;51.902;7.626;2022-10-16T09:46:46;100920.75;;;16.76;100.00
26775;BME280;14362;51.902;7.626;2022-10-16T09:50:57;100927.25;;;16.80;100.00
26775;BME280;14362;51.902;7.626;2022-10-16T09:55:00;100929.81;;;16.85;100.00
26775;BME280;14362;51.902;7.626;2022-10-16T09:59:10;100939.91;;;16.86;100.00
26775;BME280;14362;51.902;7.626;2022-10-16T10:03:12;100940.63;;;16.83;100.00
26775;BME280;14362;51.902;7.626;2022-10-16T10:07:23;100942.09;;;16.92;100.00
26775;BME280;14362;51.902;7.626;2022-10-16T10:11:39;100943.09;;;17.15;100.00
26775;BME280;14362;51.902;7.626;2022-10-16T10:15:41;100930.69;;;17.32;100.00
26775;BME280;14362;51.902;7.626;2022-10-16T10:19:47;100947.75;;;17.39;100.00
26775;BME280;14362;51.902;7.626;2022-10-16T10:23:56;100958.88;;;17.32;97.71
26775;BME280;14362;51.902;7.626;2022-10-16T10:28:30;100953.28;;;17.20;97.14
26775;BME280;14362;51.902;7.626;2022-10-16T10:32:44;100960.09;;;17.19;97.19
26775;BME280;14362;51.902;7.626;2022-10-16T10:36:52;100964.03;;;17.30;95.47
26775;BME280;14362;51.902;7.626;2022-10-16T10:41:07;100961.59;;;17.44;93.95
26775;BME280;14362;51.902;7.626;2022-10-16T10:45:24;100963.41;;;17.51;94.67
26775;BME280;14362;51.902;7.626;2022-10-16T10:49:39;100957.94;;;17.58;93.90
26775;BME280;14362;51.902;7.626;2022-10-16T10:53:50;100963.50;;;17.55;94.14
26775;BME280;14362;51.902;7.626;2022-10-16T11:02:40;100961.84;;;17.54;94.99
26775;BME280;14362;51.902;7.626;2022-10-16T11:06:44;100969.84;;;17.52;93.38
26775;BME280;14362;51.902;7.626;2022-10-16T11:10:52;100975.22;;;17.42;92.74
26775;BME280;14362;51.902;7.626;2022-10-16T11:14:57;100960.78;;;17.43;93.96
26775;BME280;14362;51.902;7.626;2022-10-16T11:19:12;100976.06;;;17.42;96.46
26775;BME280;14362;51.902;7.626;2022-10-16T11:23:18;100981.41;;;17.47;95.54
26775;BME280;14362;51.902;7.626;2022-10-16T11:27:34;100972.66;;;17.67;95.54
26775;BME280;14362;51.902;7.626;2022-10-16T11:31:40;100959.47;;;17.71;93.72
26775;BME280;14362;51.902;7.626;2022-10-16T11:35:49;100968.78;;;17.91;91.84
26775;BME280;14362;51.902;7.626;2022-10-16T11:39:57;100977.63;;;18.24;88.47
26775;BME280;14362;51.902;7.626;2022-10-16T11:44:11;100975.16;;;18.38;90.11
26775;BME280;14362;51.902;7.626;2022-10-16T11:48:23;100977.41;;;18.70;90.84
26775;BME280;14362;51.902;7.626;2022-10-16T11:52:30;100977.88;;;18.72;88.09
26775;BME280;14362;51.902;7.626;2022-10-16T11:56:37;100979.81;;;18.68;88.26
26775;BME280;14362;51.902;7.626;2022-10-16T12:00:44;100986.22;;;18.65;88.70
26775;BME280;14362;51.902;7.626;2022-10-16T12:04:51;100980.69;;;18.72;87.28
26775;BME280;14362;51.902;7.626;2022-10-16T12:09:00;100985.31;;;18.80;84.54
26775;BME280;14362;51.902;7.626;2022-10-16T12:13:03;100981.44;;;18.69;87.24
26775;BME280;14362;51.902;7.626;2022-10-16T12:17:24;100983.69;;;18.60;85.05
26775;BME280;14362;51.902;7.626;2022-10-16T12:21:30;100986.94;;;18.62;85.50
26775;BME280;14362;51.902;7.626;2022-10-16T12:25:34;100983.50;;;18.91;85.76
26775;BME280;14362;51.902;7.626;2022-10-16T12:29:39;100984.44;;;19.17;82.27
26775;BME280;14362;51.902;7.626;2022-10-16T12:33:58;100988.53;;;19.42;84.98
26775;BME280;14362;51.902;7.626;2022-10-16T12:38:12;100997.50;;;19.48;81.91
26775;BME280;14362;51.902;7.626;2022-10-16T12:42:23;101003.00;;;19.59;81.20
26775;BME280;14362;51.902;7.626;2022-10-16T12:46:43;101003.66;;;19.75;81.81
26775;BME280;14362;51.902;7.626;2022-10-16T12:50:44;101003.56;;;19.94;80.49
26775;BME280;14362;51.902;7.626;2022-10-16T12:54:46;101018.53;;;20.17;77.81
26775;BME280;14362;51.902;7.626;2022-10-16T12:59:01;101014.91;;;20.20;78.49
26775;BME280;14362;51.902;7.626;2022-10-16T13:03:28;101014.69;;;20.32;72.20
26775;BME280;14362;51.902;7.626;2022-10-16T13:07:45;101011.25;;;20.46;74.75
26775;BME280;14362;51.902;7.626;2022-10-16T13:11:59;101015.63;;;20.43;75.12
26775;BME280;14362;51.902;7.626;2022-10-16T13:16:14;101029.56;;;20.26;73.03
26775;BME280;14362;51.902;7.626;2022-10-16T13:20:22;101029.81;;;20.43;74.08
26775;BME280;14362;51.902;7.626;2022-10-16T13:24:40;101033.31;;;20.07;72.33
26775;BME280;14362;51.902;7.626;2022-10-16T13:28:43;101024.53;;;19.90;74.80
26775;BME280;14362;51.902;7.626;2022-10-16T13:32:48;101026.09;;;19.65;75.21
26775;BME280;14362;51.902;7.626;2022-10-16T13:36:52;101027.78;;;19.69;76.29
26775;BME280;14362;51.902;7.626;2022-10-16T13:40:55;101023.91;;;19.77;76.39
26775;BME280;14362;51.902;7.626;2022-10-16T13:44:57;101024.00;;;19.84;75.08
26775;BME280;14362;51.902;7.626;2022-10-16T13:49:02;101039.16;;;19.95;75.29
26775;BME280;14362;51.902;7.626;2022-10-16T13:53:05;101048.28;;;20.08;75.66
26775;BME280;14362;51.902;7.626;2022-10-16T13:57:06;101044.59;;;20.04;77.49
26775;BME280;14362;51.902;7.626;2022-10-16T14:01:16;101049.16;;;19.89;76.66
26775;BME280;14362;51.902;7.626;2022-10-16T14:05:20;101052.38;;;19.65;76.62
26775;BME280;14362;51.902;7.626;2022-10-16T14:09:23;101048.22;;;19.82;77.81
26775;BME280;14362;51.902;7.626;2022-10-16T14:13:30;101034.41;;;19.99;77.98
26775;BME280;14362;51.902;7.626;2022-10-16T14:17:35;101048.59;;;20.03;77.79
26775;BME280;14362;51.902;7.626;2022-10-16T14:21:40;101054.50;;;19.94;78.35
26775;BME280;14362;51.902;7.626;2022-10-16T14:25:42;101051.47;;;20.06;78.25
26775;BME280;14362;51.902;7.626;2022-10-16T14:29:43;101047.72;;;19.99;75.31
26775;BME280;14362;51.902;7.626;2022-10-16T14:33:45;101044.63;;;19.85;77.09
26775;BME280;14362;51.902;7.626;2022-10-16T14:37:51;101044.69;;;19.88;77.70
26775;BME280;14362;51.902;7.626;2022-10-16T14:41:55;101041.53;;;19.93;77.01
26775;BME280;14362;51.902;7.626;2022-10-16T14:45:57;101047.56;;;19.92;78.06
26775;BME280;14362;51.902;7.626;2022-10-16T14:49:59;101041.81;;;19.85;78.48
26775;BME280;14362;51.902;7.626;2022-10-16T14:54:02;101066.06;;;19.63;81.09
26775;BME280;14362;51.902;7.626;2022-10-16T14:58:04;101073.22;;;19.35;80.83
26775;BME280;14362;51.902;7.626;2022-10-16T15:02:18;101066.94;;;19.23;79.25
26775;BME280;14362;51.902;7.626;2022-10-16T15:06:21;101062.69;;;19.13;79.79
26775;BME280;14362;51.902;7.626;2022-10-16T15:10:27;101065.41;;;19.10;80.34
26775;BME280;14362;51.902;7.626;2022-10-16T15:14:29;101062.47;;;19.03;81.41
26775;BME280;14362;51.902;7.626;2022-10-16T15:18:31;101055.91;;;18.99;81.92
26775;BME280;14362;51.902;7.626;2022-10-16T15:22:32;101067.06;;;18.92;84.65
26775;BME280;14362;51.902;7.626;2022-10-16T15:26:35;101053.44;;;18.78;86.84
26775;BME280;14362;51.902;7.626;2022-10-16T15:30:37;101053.53;;;18.63;90.12
26775;BME280;14362;51.902;7.626;2022-10-16T15:34:39;101058.94;;;18.52;91.71
26775;BME280;14362;51.902;7.626;2022-10-16T15:38:40;101067.19;;;18.42;93.06
26775;BME280;14362;51.902;7.626;2022-10-16T15:42:43;101076.31;;;18.36;93.61
26775;BME280;14362;51.902;7.626;2022-10-16T15:46:44;101075.31;;;18.28;95.45
26775;BME280;14362;51.902;7.626;2022-10-16T15:50:46;101073.09;;;18.22;96.85
26775;BME280;14362;51.902;7.626;2022-10-16T15:54:48;101065.38;;;18.19;97.00
26775;BME280;14362;51.902;7.626;2022-10-16T15:58:51;101064.81;;;18.13;97.46
26775;BME280;14362;51.902;7.626;2022-10-16T16:02:53;101068.75;;;18.09;97.79
26775;BME280;14362;51.902;7.626;2022-10-16T16:06:55;101060.50;;;18.00;97.99
26775;BME280;14362;51.902;7.626;2022-10-16T16:10:59;101068.41;;;17.95;99.02
26775;BME280;14362;51.902;7.626;2022-10-16T16:15:02;101082.72;;;17.86;100.00
26775;BME280;14362;51.902;7.626;2022-10-16T16:19:04;101059.41;;;17.74;100.00
26775;BME280;14362;51.902;7.626;2022-10-16T16:23:06;101064.88;;;17.67;100.00
26775;BME280;14362;51.902;7.626;2022-10-16T16:27:08;101066.53;;;17.52;100.00
26775;BME280;14362;51.902;7.626;2022-10-16T16:31:10;101064.22;;;17.43;100.00
26775;BME280;14362;51.902;7.626;2022-10-16T16:35:12;101075.72;;;17.22;100.00
26775;BME280;14362;51.902;7.626;2022-10-16T16:39:13;101069.09;;;17.03;100.00
26775;BME280;14362;51.902;7.626;2022-10-16T16:43:15;101076.91;;;16.94;100.00
26775;BME280;14362;51.902;7.626;2022-10-16T16:47:18;101072.59;;;16.84;100.00
26775;BME280;14362;51.902;7.626;2022-10-16T16:51:19;101078.72;;;16.74;100.00
26775;BME280;14362;51.902;7.626;2022-10-16T16:55:21;101085.34;;;16.54;100.00
26775;BME280;14362;51.902;7.626;2022-10-16T16:59:22;101104.16;;;16.50;100.00
26775;BME280;14362;51.902;7.626;2022-10-16T17:03:25;101104.16;;;16.50;100.00
26775;BME280;14362;51.902;7.626;2022-10-16T17:07:30;101108.00;;;16.46;100.00
26775;BME280;14362;51.902;7.626;2022-10-16T17:11:33;101107.28;;;16.25;100.00
26775;BME280;14362;51.902;7.626;2022-10-16T17:15:35;101126.50;;;16.23;100.00
26775;BME280;14362;51.902;7.626;2022-10-16T17:19:38;101123.50;;;16.16;100.00
26775;BME280;14362;51.902;7.626;2022-10-16T17:23:39;101113.63;;;16.10;100.00
26775;BME280;14362;51.902;7.626;2022-10-16T17:27:41;101121.38;;;16.01;100.00
26775;BME280;14362;51.902;7.626;2022-10-16T17:31:43;101124.06;;;15.98;100.00
26775;BME280;14362;51.902;7.626;2022-10-16T17:35:46;101122.91;;;15.87;100.00
26775;BME280;14362;51.902;7.626;2022-10-16T17:39:49;101130.03;;;15.84;100.00
26775;BME280;14362;51.902;7.626;2022-10-16T17:43:51;101138.69;;;15.79;100.00
26775;BME280;14362;51.902;7.626;2022-10-16T17:47:52;101150.63;;;15.76;100.00
26775;BME280;14362;51.902;7.626;2022-10-16T17:51:55;101149.00;;;15.75;100.00
26775;BME280;14362;51.902;7.626;2022-10-16T17:56:01;101164.22;;;15.74;100.00
26775;BME280;14362;51.902;7.626;2022-10-16T18:00:03;101160.72;;;15.77;100.00
26775;BME280;14362;51.902;7.626;2022-10-16T18:04:07;101162.69;;;15.77;100.00
26775;BME280;14362;51.902;7.626;2022-10-16T18:08:10;101171.47;;;15.75;100.00
26775;BME280;14362;51.902;7.626;2022-10-16T18:12:11;101158.81;;;15.69;100.00
26775;BME280;14362;51.902;7.626;2022-10-16T18:16:14;101156.47;;;15.59;100.00
26775;BME280;14362;51.902;7.626;2022-10-16T18:20:16;101150.47;;;15.61;100.00
26775;BME280;14362;51.902;7.626;2022-10-16T18:24:20;101144.53;;;15.62;100.00
26775;BME280;14362;51.902;7.626;2022-10-16T18:28:23;101140.19;;;15.65;100.00
26775;BME280;14362;51.902;7.626;2022-10-16T18:32:25;101149.47;;;15.65;100.00
26775;BME280;14362;51.902;7.626;2022-10-16T18:36:31;101155.19;;;15.69;100.00
26775;BME280;14362;51.902;7.626;2022-10-16T18:40:35;101142.31;;;15.68;100.00
26775;BME280;14362;51.902;7.626;2022-10-16T18:44:37;101133.75;;;15.64;100.00
26775;BME280;14362;51.902;7.626;2022-10-16T18:48:38;101141.03;;;15.65;100.00
26775;BME280;14362;51.902;7.626;2022-10-16T18:52:46;101145.13;;;15.68;100.00
26775;BME280;14362;51.902;7.626;2022-10-16T18:56:50;101137.84;;;15.67;100.00
26775;BME280;14362;51.902;7.626;2022-10-16T19:00:51;101127.19;;;15.72;100.00
26775;BME280;14362;51.902;7.626;2022-10-16T19:04:53;101137.88;;;15.79;100.00
26775;BME280;14362;51.902;7.626;2022-10-16T19:08:55;101143.97;;;15.81;100.00
26775;BME280;14362;51.902;7.626;2022-10-16T19:12:58;101138.81;;;15.83;100.00
26775;BME280;14362;51.902;7.626;2022-10-16T19:16:59;101147.59;;;15.81;100.00
26775;BME280;14362;51.902;7.626;2022-10-16T19:21:00;101149.09;;;15.79;100.00
26775;BME280;14362;51.902;7.626;2022-10-16T19:25:02;101148.78;;;15.80;100.00
26775;BME280;14362;51.902;7.626;2022-10-16T19:29:05;101146.28;;;15.79;100.00
26775;BME280;14362;51.902;7.626;2022-10-16T19:33:07;101142.56;;;15.75;100.00
26775;BME280;14362;51.902;7.626;2022-10-16T19:37:08;101144.66;;;15.78;100.00
26775;BME280;14362;51.902;7.626;2022-10-16T19:41:12;101158.22;;;15.76;100.00
26775;BME280;14362;51.902;7.626;2022-10-16T19:45:15;101155.31;;;15.72;100.00
26775;BME280;14362;51.902;7.626;2022-10-16T19:49:17;101181.28;;;15.69;100.00
26775;BME280;14362;51.902;7.626;2022-10-16T20:01:30;101218.53;;;15.66;100.00
26775;BME280;14362;51.902;7.626;2022-10-16T20:09:58;101217.13;;;15.60;100.00
26775;BME280;14362;51.902;7.626;2022-10-16T20:14:00;101210.66;;;15.60;100.00
26775;BME280;14362;51.902;7.626;2022-10-16T20:18:02;101195.81;;;15.59;100.00
26775;BME280;14362;51.902;7.626;2022-10-16T20:22:04;101181.63;;;15.56;100.00
26775;BME280;14362;51.902;7.626;2022-10-16T20:26:07;101215.69;;;15.54;100.00
26775;BME280;14362;51.902;7.626;2022-10-16T20:30:10;101231.56;;;15.50;100.00
26775;BME280;14362;51.902;7.626;2022-10-16T20:34:12;101232.16;;;15.44;100.00
26775;BME280;14362;51.902;7.626;2022-10-16T20:38:15;101223.72;;;15.44;100.00
26775;BME280;14362;51.902;7.626;2022-10-16T20:42:18;101237.16;;;15.38;100.00
26775;BME280;14362;51.902;7.626;2022-10-16T20:46:21;101223.47;;;15.37;100.00
26775;BME280;14362;51.902;7.626;2022-10-16T20:50:22;101230.09;;;15.33;100.00
26775;BME280;14362;51.902;7.626;2022-10-16T20:54:24;101226.34;;;15.29;100.00
26775;BME280;14362;51.902;7.626;2022-10-16T20:58:27;101226.81;;;15.31;100.00
26775;BME280;14362;51.902;7.626;2022-10-16T21:02:28;101218.75;;;15.29;100.00
26775;BME280;14362;51.902;7.626;2022-10-16T21:06:31;101208.19;;;15.26;100.00
26775;BME280;14362;51.902;7.626;2022-10-16T21:10:32;101202.41;;;15.23;100.00
26775;BME280;14362;51.902;7.626;2022-10-16T21:14:35;101206.25;;;15.18;100.00
26775;BME280;14362;51.902;7.626;2022-10-16T21:18:37;101206.38;;;15.22;100.00
26775;BME280;14362;51.902;7.626;2022-10-16T21:22:39;101207.56;;;15.21;100.00